Toyofujimaru No.2 — 7JDI — position and weather

sailwx.info

Track history (hours):
 
Tides and Currents Weather Stations Pressure Air Temp Water Temp Dewpoint Dewpoint Depression Visibility Wind Speed Wind Dir Waves Ship Positions

Toyofujimaru No.2

Last reported at 2016-Apr-26 16:22 UTC. Time now 2016-May-04 09:48 UTC.
Position N 24°13' E 119°10'.

Length 165 m; draft 6.6 m.

Type: Cargo ship. MMSI: 432667000.

Date/timePositionNaut miles runAvg speedWind from/ knotsBaromVisibWave heightAir tempDewpointWater temp
2016-Apr-26 16:22N 24°13' E 119°10'28017.5
2016-Apr-26 00:23N 22°08' E 114°38'1517.8
2016-Apr-25 23:33N 22°07' E 114°22'2617.8
2016-Apr-25 22:05N 22°06' E 113°54'713.1
2016-Apr-25 21:34N 22°09' E 113°48'1313.1
2016-Apr-25 20:34N 22°22' E 113°47'2612.8
2016-Apr-25 18:33N 22°46' E 113°38'10 9.6
2016-Apr-25 17:33N 22°55' E 113°34'6 5.7
2016-Apr-25 16:33N 23°01' E 113°32'0 0.0
2016-Apr-25 15:19N 23°01' E 113°32'0 0.0
2016-Apr-25 14:31N 23°01' E 113°32'1 0.5
2016-Apr-25 13:33N 23°01' E 113°31'6 5.6
2016-Apr-25 12:33N 22°56' E 113°33'9 9.0
2016-Apr-25 11:33N 22°47' E 113°37'2411.9
2016-Apr-25 09:30N 22°24' E 113°46'1111.4
2016-Apr-25 08:33N 22°14' E 113°48'6 5.0
2016-Apr-25 07:16N 22°07' E 113°47'0 0.0
2016-Apr-25 06:28N 22°07' E 113°47'0 0.1
2016-Apr-25 05:28N 22°07' E 113°47'0 0.0
2016-Apr-25 04:28N 22°07' E 113°47'0 0.1
2016-Apr-25 03:16N 22°07' E 113°47'0 0.0
2016-Apr-25 01:28N 22°07' E 113°47'0 0.0
2016-Apr-25 00:22N 22°07' E 113°47'0 0.0
2016-Apr-24 23:28N 22°07' E 113°47'0 0.0
2016-Apr-24 22:28N 22°07' E 113°47'0 0.0
2016-Apr-24 21:28N 22°07' E 113°47'0 0.0
2016-Apr-24 20:28N 22°07' E 113°47'0 0.0
2016-Apr-24 19:28N 22°07' E 113°47'0 0.0
2016-Apr-24 18:22N 22°07' E 113°47'1411.8
2016-Apr-24 17:13N 22°08' E 114°02'812.1
2016-Apr-24 16:31N 22°12' E 114°11'9 8.9
2016-Apr-24 15:33N 22°19' E 114°07'1 0.3
2016-Apr-24 10:31N 22°21' E 114°07'0 0.0
2016-Apr-24 09:07N 22°21' E 114°07'0 0.2
2016-Apr-24 08:32N 22°21' E 114°07'8 6.7
2016-Apr-24 07:17N 22°13' E 114°10'5 7.2
2016-Apr-24 06:33N 22°09' E 114°14'1514.5
2016-Apr-24 05:31N 22°09' E 114°30'  
2016-Apr-21 10:04N 33°37' E 129°42'918.7
2016-Apr-21 09:34N 33°40' E 129°52'1818.1
2016-Apr-21 08:33N 33°43' E 130°14'10 9.7
2016-Apr-21 07:33N 33°39' E 130°24'0 0.0
2016-Apr-21 06:31N 33°39' E 130°24'0 0.0
2016-Apr-21 05:31N 33°39' E 130°24'0 0.0
2016-Apr-21 04:31N 33°39' E 130°24'0 0.0
2016-Apr-21 03:31N 33°39' E 130°24'0 0.0
2016-Apr-21 02:31N 33°39' E 130°24'0 0.0
2016-Apr-21 01:31N 33°39' E 130°24'2 1.7
2016-Apr-21 00:33N 33°39' E 130°23'6 5.7
2016-Apr-20 23:31N 33°39' E 130°16'0 0.1
2016-Apr-20 22:31N 33°39' E 130°16'0 0.0
2016-Apr-20 16:31N 33°39' E 130°16'0 0.0
2016-Apr-20 15:31N 33°39' E 130°16'0 0.0
2016-Apr-20 14:31N 33°39' E 130°16'0 0.0
2016-Apr-20 13:31N 33°39' E 130°16'4 4.1
2016-Apr-20 12:33N 33°43' E 130°16'1818.0
2016-Apr-20 11:33N 33°58' E 130°29'1817.7
2016-Apr-20 10:33N 34°01' E 130°50'  
Track history (hours):
 
Tides and Currents Weather Stations Pressure Air Temp Water Temp Dewpoint Dewpoint Depression Visibility Wind Speed Wind Dir Waves Ship Positions

Toyofujimaru No.2

Last reported at 2016-Apr-26 16:22 UTC. Time now 2016-May-04 09:48 UTC.
Position N 24°13' E 119°10'.

Length 165 m; draft 6.6 m.

Type: Cargo ship. MMSI: 432667000.

Date/timePositionNaut miles runAvg speedWind from/ knotsBaromVisibWave heightAir tempDewpointWater temp
2016-Apr-26 16:22N 24°13' E 119°10'28017.5
2016-Apr-26 00:23N 22°08' E 114°38'1517.8
2016-Apr-25 23:33N 22°07' E 114°22'2617.8
2016-Apr-25 22:05N 22°06' E 113°54'713.1
2016-Apr-25 21:34N 22°09' E 113°48'1313.1
2016-Apr-25 20:34N 22°22' E 113°47'2612.8
2016-Apr-25 18:33N 22°46' E 113°38'10 9.6
2016-Apr-25 17:33N 22°55' E 113°34'6 5.7
2016-Apr-25 16:33N 23°01' E 113°32'0 0.0
2016-Apr-25 15:19N 23°01' E 113°32'0 0.0
2016-Apr-25 14:31N 23°01' E 113°32'1 0.5
2016-Apr-25 13:33N 23°01' E 113°31'6 5.6
2016-Apr-25 12:33N 22°56' E 113°33'9 9.0
2016-Apr-25 11:33N 22°47' E 113°37'2411.9
2016-Apr-25 09:30N 22°24' E 113°46'1111.4
2016-Apr-25 08:33N 22°14' E 113°48'6 5.0
2016-Apr-25 07:16N 22°07' E 113°47'0 0.0
2016-Apr-25 06:28N 22°07' E 113°47'0 0.1
2016-Apr-25 05:28N 22°07' E 113°47'0 0.0
2016-Apr-25 04:28N 22°07' E 113°47'0 0.1
2016-Apr-25 03:16N 22°07' E 113°47'0 0.0
2016-Apr-25 01:28N 22°07' E 113°47'0 0.0
2016-Apr-25 00:22N 22°07' E 113°47'0 0.0
2016-Apr-24 23:28N 22°07' E 113°47'0 0.0
2016-Apr-24 22:28N 22°07' E 113°47'0 0.0
2016-Apr-24 21:28N 22°07' E 113°47'0 0.0
2016-Apr-24 20:28N 22°07' E 113°47'0 0.0
2016-Apr-24 19:28N 22°07' E 113°47'0 0.0
2016-Apr-24 18:22N 22°07' E 113°47'1411.8
2016-Apr-24 17:13N 22°08' E 114°02'812.1
2016-Apr-24 16:31N 22°12' E 114°11'9 8.9
2016-Apr-24 15:33N 22°19' E 114°07'1 0.3
2016-Apr-24 10:31N 22°21' E 114°07'0 0.0
2016-Apr-24 09:07N 22°21' E 114°07'0 0.2
2016-Apr-24 08:32N 22°21' E 114°07'8 6.7
2016-Apr-24 07:17N 22°13' E 114°10'5 7.2
2016-Apr-24 06:33N 22°09' E 114°14'1514.5
2016-Apr-24 05:31N 22°09' E 114°30'  
2016-Apr-21 10:04N 33°37' E 129°42'918.7
2016-Apr-21 09:34N 33°40' E 129°52'1818.1
2016-Apr-21 08:33N 33°43' E 130°14'10 9.7
2016-Apr-21 07:33N 33°39' E 130°24'0 0.0
2016-Apr-21 06:31N 33°39' E 130°24'0 0.0
2016-Apr-21 05:31N 33°39' E 130°24'0 0.0
2016-Apr-21 04:31N 33°39' E 130°24'0 0.0
2016-Apr-21 03:31N 33°39' E 130°24'0 0.0
2016-Apr-21 02:31N 33°39' E 130°24'0 0.0
2016-Apr-21 01:31N 33°39' E 130°24'2 1.7
2016-Apr-21 00:33N 33°39' E 130°23'6 5.7
2016-Apr-20 23:31N 33°39' E 130°16'0 0.1
2016-Apr-20 22:31N 33°39' E 130°16'0 0.0
2016-Apr-20 16:31N 33°39' E 130°16'0 0.0
2016-Apr-20 15:31N 33°39' E 130°16'0 0.0
2016-Apr-20 14:31N 33°39' E 130°16'0 0.0
2016-Apr-20 13:31N 33°39' E 130°16'4 4.1
2016-Apr-20 12:33N 33°43' E 130°16'1818.0
2016-Apr-20 11:33N 33°58' E 130°29'1817.7
2016-Apr-20 10:33N 34°01' E 130°50'  

Dump ship's entire track history